sensor_id;sensor_type;location;lat;lon;timestamp;pressure;altitude;pressure_sealevel;temperature;humidity
10518;BME280;5307;42.548;22.968;2024-03-02T00:01:04;93300.53;;;7.42;100.00
10518;BME280;5307;42.548;22.968;2024-03-02T00:03:33;93292.09;;;7.40;100.00
10518;BME280;5307;42.548;22.968;2024-03-02T00:06:00;93295.88;;;7.43;100.00
10518;BME280;5307;42.548;22.968;2024-03-02T00:08:26;93314.56;;;7.41;100.00
10518;BME280;5307;42.548;22.968;2024-03-02T00:10:57;93303.00;;;7.28;100.00
10518;BME280;5307;42.548;22.968;2024-03-02T00:13:25;93307.00;;;7.36;100.00
10518;BME280;5307;42.548;22.968;2024-03-02T00:15:52;93312.59;;;7.20;100.00
10518;BME280;5307;42.548;22.968;2024-03-02T00:18:20;93302.09;;;7.31;100.00
10518;BME280;5307;42.548;22.968;2024-03-02T00:20:52;93310.09;;;7.12;100.00
10518;BME280;5307;42.548;22.968;2024-03-02T00:23:20;93302.16;;;7.18;100.00
10518;BME280;5307;42.548;22.968;2024-03-02T00:25:48;93295.13;;;7.08;100.00
10518;BME280;5307;42.548;22.968;2024-03-02T00:28:20;93297.72;;;7.11;100.00
10518;BME280;5307;42.548;22.968;2024-03-02T00:30:58;93299.31;;;7.22;100.00
10518;BME280;5307;42.548;22.968;2024-03-02T00:33:30;93301.03;;;7.28;100.00
10518;BME280;5307;42.548;22.968;2024-03-02T00:35:59;93292.44;;;7.30;100.00
10518;BME280;5307;42.548;22.968;2024-03-02T00:38:28;93299.91;;;7.38;100.00
10518;BME280;5307;42.548;22.968;2024-03-02T00:40:56;93303.31;;;7.30;100.00
10518;BME280;5307;42.548;22.968;2024-03-02T00:43:44;93290.16;;;7.28;100.00
10518;BME280;5307;42.548;22.968;2024-03-02T00:46:15;93290.28;;;7.25;100.00
10518;BME280;5307;42.548;22.968;2024-03-02T00:48:48;93286.25;;;7.29;100.00
10518;BME280;5307;42.548;22.968;2024-03-02T00:51:19;93288.88;;;7.33;100.00
10518;BME280;5307;42.548;22.968;2024-03-02T00:53:45;93286.91;;;7.33;100.00
10518;BME280;5307;42.548;22.968;2024-03-02T00:56:13;93287.00;;;7.30;100.00
10518;BME280;5307;42.548;22.968;2024-03-02T00:58:40;93287.31;;;7.32;100.00
10518;BME280;5307;42.548;22.968;2024-03-02T01:01:07;93285.91;;;7.40;100.00
10518;BME280;5307;42.548;22.968;2024-03-02T01:03:33;93283.97;;;7.28;100.00
10518;BME280;5307;42.548;22.968;2024-03-02T01:06:00;93279.06;;;7.35;100.00
10518;BME280;5307;42.548;22.968;2024-03-02T01:08:29;93280.63;;;7.24;100.00
10518;BME280;5307;42.548;22.968;2024-03-02T01:10:56;93279.97;;;7.32;100.00
10518;BME280;5307;42.548;22.968;2024-03-02T01:13:23;93276.66;;;7.37;100.00
10518;BME280;5307;42.548;22.968;2024-03-02T01:15:49;93271.59;;;7.27;100.00
10518;BME280;5307;42.548;22.968;2024-03-02T01:18:16;93263.66;;;7.32;100.00
10518;BME280;5307;42.548;22.968;2024-03-02T01:20:43;93261.63;;;7.24;100.00
10518;BME280;5307;42.548;22.968;2024-03-02T01:23:10;93259.34;;;7.22;100.00
10518;BME280;5307;42.548;22.968;2024-03-02T01:25:38;93262.41;;;7.11;100.00
10518;BME280;5307;42.548;22.968;2024-03-02T01:28:05;93260.16;;;7.32;100.00
10518;BME280;5307;42.548;22.968;2024-03-02T01:30:32;93254.53;;;7.26;100.00
10518;BME280;5307;42.548;22.968;2024-03-02T01:32:59;93257.72;;;7.25;100.00
10518;BME280;5307;42.548;22.968;2024-03-02T01:35:25;93252.03;;;7.32;100.00
10518;BME280;5307;42.548;22.968;2024-03-02T01:37:53;93255.31;;;7.27;100.00
10518;BME280;5307;42.548;22.968;2024-03-02T01:40:19;93255.19;;;7.30;100.00
10518;BME280;5307;42.548;22.968;2024-03-02T01:42:48;93253.91;;;7.22;100.00
10518;BME280;5307;42.548;22.968;2024-03-02T01:45:14;93256.19;;;7.24;100.00
10518;BME280;5307;42.548;22.968;2024-03-02T01:47:41;93253.06;;;7.12;100.00
10518;BME280;5307;42.548;22.968;2024-03-02T01:50:08;93252.41;;;7.21;100.00
10518;BME280;5307;42.548;22.968;2024-03-02T01:52:37;93250.63;;;7.27;100.00
10518;BME280;5307;42.548;22.968;2024-03-02T01:55:05;93252.03;;;7.32;100.00
10518;BME280;5307;42.548;22.968;2024-03-02T01:57:33;93244.72;;;7.41;100.00
10518;BME280;5307;42.548;22.968;2024-03-02T02:00:01;93246.34;;;7.39;100.00
10518;BME280;5307;42.548;22.968;2024-03-02T02:02:28;93241.28;;;7.28;100.00
10518;BME280;5307;42.548;22.968;2024-03-02T02:04:55;93242.56;;;7.36;100.00
10518;BME280;5307;42.548;22.968;2024-03-02T02:07:22;93246.53;;;7.23;100.00
10518;BME280;5307;42.548;22.968;2024-03-02T02:09:48;93247.06;;;7.18;100.00
10518;BME280;5307;42.548;22.968;2024-03-02T02:12:16;93238.81;;;7.21;100.00
10518;BME280;5307;42.548;22.968;2024-03-02T02:14:47;93245.50;;;7.29;100.00
10518;BME280;5307;42.548;22.968;2024-03-02T02:17:16;93243.56;;;7.30;100.00
10518;BME280;5307;42.548;22.968;2024-03-02T02:19:43;93236.38;;;7.36;100.00
10518;BME280;5307;42.548;22.968;2024-03-02T02:22:11;93235.81;;;7.19;100.00
10518;BME280;5307;42.548;22.968;2024-03-02T02:24:41;93234.06;;;7.12;100.00
10518;BME280;5307;42.548;22.968;2024-03-02T02:27:08;93237.41;;;7.17;100.00
10518;BME280;5307;42.548;22.968;2024-03-02T02:29:36;93234.38;;;7.14;100.00
10518;BME280;5307;42.548;22.968;2024-03-02T02:32:03;93236.66;;;7.16;100.00
10518;BME280;5307;42.548;22.968;2024-03-02T02:34:30;93242.31;;;7.22;100.00
10518;BME280;5307;42.548;22.968;2024-03-02T02:36:57;93228.50;;;7.16;100.00
10518;BME280;5307;42.548;22.968;2024-03-02T02:39:25;93242.75;;;7.20;100.00
10518;BME280;5307;42.548;22.968;2024-03-02T02:41:52;93242.44;;;7.18;100.00
10518;BME280;5307;42.548;22.968;2024-03-02T02:44:19;93246.09;;;7.24;100.00
10518;BME280;5307;42.548;22.968;2024-03-02T02:46:45;93245.06;;;7.09;100.00
10518;BME280;5307;42.548;22.968;2024-03-02T02:49:12;93246.56;;;7.10;100.00
10518;BME280;5307;42.548;22.968;2024-03-02T02:51:39;93246.56;;;7.10;100.00
10518;BME280;5307;42.548;22.968;2024-03-02T02:54:06;93251.88;;;7.13;100.00
10518;BME280;5307;42.548;22.968;2024-03-02T02:56:34;93243.72;;;7.13;100.00
10518;BME280;5307;42.548;22.968;2024-03-02T02:59:00;93240.41;;;7.31;100.00
10518;BME280;5307;42.548;22.968;2024-03-02T03:01:27;93251.88;;;7.13;100.00
10518;BME280;5307;42.548;22.968;2024-03-02T03:03:54;93243.41;;;7.11;100.00
10518;BME280;5307;42.548;22.968;2024-03-02T03:06:20;93240.38;;;7.09;100.00
10518;BME280;5307;42.548;22.968;2024-03-02T03:08:47;93243.66;;;7.04;100.00
10518;BME280;5307;42.548;22.968;2024-03-02T03:11:14;93243.22;;;7.06;100.00
10518;BME280;5307;42.548;22.968;2024-03-02T03:13:42;93245.69;;;7.13;100.00
10518;BME280;5307;42.548;22.968;2024-03-02T03:16:09;93231.34;;;7.12;100.00
10518;BME280;5307;42.548;22.968;2024-03-02T03:18:35;93234.69;;;7.17;100.00
10518;BME280;5307;42.548;22.968;2024-03-02T03:21:03;93232.56;;;7.11;100.00
10518;BME280;5307;42.548;22.968;2024-03-02T03:23:30;93231.03;;;7.10;100.00
10518;BME280;5307;42.548;22.968;2024-03-02T03:25:57;93238.31;;;7.13;100.00
10518;BME280;5307;42.548;22.968;2024-03-02T03:28:23;93237.34;;;7.07;100.00
10518;BME280;5307;42.548;22.968;2024-03-02T03:30:52;93247.66;;;7.12;100.00
10518;BME280;5307;42.548;22.968;2024-03-02T03:33:18;93237.75;;;7.19;100.00
10518;BME280;5307;42.548;22.968;2024-03-02T03:35:45;93243.22;;;7.06;100.00
10518;BME280;5307;42.548;22.968;2024-03-02T03:38:26;93238.16;;;7.17;100.00
10518;BME280;5307;42.548;22.968;2024-03-02T03:40:52;93243.84;;;7.10;100.00
10518;BME280;5307;42.548;22.968;2024-03-02T03:43:19;93240.50;;;7.06;100.00
10518;BME280;5307;42.548;22.968;2024-03-02T03:45:46;93245.91;;;7.19;100.00
10518;BME280;5307;42.548;22.968;2024-03-02T03:48:14;93247.47;;;7.07;100.00
10518;BME280;5307;42.548;22.968;2024-03-02T03:50:41;93248.53;;;7.09;100.00
10518;BME280;5307;42.548;22.968;2024-03-02T03:53:07;93251.16;;;7.00;100.00
10518;BME280;5307;42.548;22.968;2024-03-02T03:55:34;93247.69;;;7.00;100.00
10518;BME280;5307;42.548;22.968;2024-03-02T03:58:01;93254.09;;;7.06;100.00
10518;BME280;5307;42.548;22.968;2024-03-02T04:00:28;93252.09;;;7.19;100.00
10518;BME280;5307;42.548;22.968;2024-03-02T04:02:54;93252.00;;;7.10;100.00
10518;BME280;5307;42.548;22.968;2024-03-02T04:05:23;93252.44;;;7.08;100.00
10518;BME280;5307;42.548;22.968;2024-03-02T04:07:50;93253.59;;;7.20;100.00
10518;BME280;5307;42.548;22.968;2024-03-02T04:10:16;93255.44;;;7.23;100.00
10518;BME280;5307;42.548;22.968;2024-03-02T04:12:43;93249.47;;;7.15;100.00
10518;BME280;5307;42.548;22.968;2024-03-02T04:15:10;93246.66;;;7.19;100.00
10518;BME280;5307;42.548;22.968;2024-03-02T04:17:36;93253.06;;;7.12;100.00
10518;BME280;5307;42.548;22.968;2024-03-02T04:20:04;93246.25;;;7.08;100.00
10518;BME280;5307;42.548;22.968;2024-03-02T04:22:34;93252.22;;;7.03;100.00
10518;BME280;5307;42.548;22.968;2024-03-02T04:25:01;93253.66;;;7.07;100.00
10518;BME280;5307;42.548;22.968;2024-03-02T04:27:30;93248.75;;;7.02;100.00
10518;BME280;5307;42.548;22.968;2024-03-02T04:29:56;93247.34;;;7.10;100.00
10518;BME280;5307;42.548;22.968;2024-03-02T04:32:23;93243.25;;;6.93;100.00
10518;BME280;5307;42.548;22.968;2024-03-02T04:34:50;93249.72;;;7.08;100.00
10518;BME280;5307;42.548;22.968;2024-03-02T04:37:17;93241.00;;;7.13;100.00
10518;BME280;5307;42.548;22.968;2024-03-02T04:39:45;93242.31;;;7.22;100.00
10518;BME280;5307;42.548;22.968;2024-03-02T04:42:11;93238.56;;;7.06;100.00
10518;BME280;5307;42.548;22.968;2024-03-02T04:44:38;93251.25;;;7.09;100.00
10518;BME280;5307;42.548;22.968;2024-03-02T04:47:05;93238.88;;;7.08;100.00
10518;BME280;5307;42.548;22.968;2024-03-02T04:49:32;93242.25;;;7.00;100.00
10518;BME280;5307;42.548;22.968;2024-03-02T04:51:58;93255.94;;;6.96;100.00
10518;BME280;5307;42.548;22.968;2024-03-02T04:54:25;93247.56;;;7.03;100.00
10518;BME280;5307;42.548;22.968;2024-03-02T04:56:53;93250.22;;;7.16;100.00
10518;BME280;5307;42.548;22.968;2024-03-02T04:59:20;93254.41;;;7.08;100.00
10518;BME280;5307;42.548;22.968;2024-03-02T05:01:47;93249.19;;;7.01;100.00
10518;BME280;5307;42.548;22.968;2024-03-02T05:04:13;93254.19;;;7.02;100.00
10518;BME280;5307;42.548;22.968;2024-03-02T05:06:40;93252.66;;;7.01;100.00
10518;BME280;5307;42.548;22.968;2024-03-02T05:09:07;93248.44;;;7.00;100.00
10518;BME280;5307;42.548;22.968;2024-03-02T05:11:34;93261.47;;;7.05;100.00
10518;BME280;5307;42.548;22.968;2024-03-02T05:14:20;93245.72;;;7.00;100.00
10518;BME280;5307;42.548;22.968;2024-03-02T05:16:47;93255.94;;;6.96;100.00
10518;BME280;5307;42.548;22.968;2024-03-02T05:19:13;93251.81;;;7.04;100.00
10518;BME280;5307;42.548;22.968;2024-03-02T05:21:40;93257.13;;;7.08;100.00
10518;BME280;5307;42.548;22.968;2024-03-02T05:24:07;93251.47;;;7.02;100.00
10518;BME280;5307;42.548;22.968;2024-03-02T05:26:34;93260.03;;;7.13;100.00
10518;BME280;5307;42.548;22.968;2024-03-02T05:29:00;93254.28;;;7.11;100.00
10518;BME280;5307;42.548;22.968;2024-03-02T05:31:29;93261.22;;;7.12;100.00
10518;BME280;5307;42.548;22.968;2024-03-02T05:33:56;93256.69;;;7.09;100.00
10518;BME280;5307;42.548;22.968;2024-03-02T05:36:23;93262.09;;;7.09;100.00
10518;BME280;5307;42.548;22.968;2024-03-02T05:38:49;93259.06;;;7.07;100.00
10518;BME280;5307;42.548;22.968;2024-03-02T05:41:16;93261.47;;;7.05;100.00
10518;BME280;5307;42.548;22.968;2024-03-02T05:43:43;93263.75;;;7.07;100.00
10518;BME280;5307;42.548;22.968;2024-03-02T05:46:09;93264.63;;;7.04;100.00
10518;BME280;5307;42.548;22.968;2024-03-02T05:48:38;93267.53;;;7.09;100.00
10518;BME280;5307;42.548;22.968;2024-03-02T05:51:06;93276.25;;;7.04;100.00
10518;BME280;5307;42.548;22.968;2024-03-02T05:53:33;93277.84;;;7.02;100.00
10518;BME280;5307;42.548;22.968;2024-03-02T05:56:00;93281.69;;;7.04;100.00
10518;BME280;5307;42.548;22.968;2024-03-02T05:58:27;93277.84;;;7.02;100.00
10518;BME280;5307;42.548;22.968;2024-03-02T06:01:08;93284.28;;;6.95;100.00
10518;BME280;5307;42.548;22.968;2024-03-02T06:03:35;93280.69;;;6.98;100.00
10518;BME280;5307;42.548;22.968;2024-03-02T06:06:03;93283.31;;;6.89;100.00
10518;BME280;5307;42.548;22.968;2024-03-02T06:08:30;93278.22;;;7.04;100.00
10518;BME280;5307;42.548;22.968;2024-03-02T06:10:57;93291.00;;;7.03;100.00
10518;BME280;5307;42.548;22.968;2024-03-02T06:13:24;93289.25;;;7.09;100.00
10518;BME280;5307;42.548;22.968;2024-03-02T06:15:51;93287.66;;;6.87;100.00
10518;BME280;5307;42.548;22.968;2024-03-02T06:18:18;93284.41;;;6.92;100.00
10518;BME280;5307;42.548;22.968;2024-03-02T06:20:45;93275.94;;;6.90;100.00
10518;BME280;5307;42.548;22.968;2024-03-02T06:23:13;93289.19;;;6.88;100.00
10518;BME280;5307;42.548;22.968;2024-03-02T06:25:40;93292.91;;;6.81;100.00
10518;BME280;5307;42.548;22.968;2024-03-02T06:28:06;93295.66;;;7.03;100.00
10518;BME280;5307;42.548;22.968;2024-03-02T06:30:33;93291.66;;;7.07;100.00
10518;BME280;5307;42.548;22.968;2024-03-02T06:33:00;93293.34;;;7.14;100.00
10518;BME280;5307;42.548;22.968;2024-03-02T06:35:26;93294.22;;;7.24;100.00
10518;BME280;5307;42.548;22.968;2024-03-02T06:37:53;93294.78;;;7.19;100.00
10518;BME280;5307;42.548;22.968;2024-03-02T06:40:21;93303.00;;;7.28;100.00
10518;BME280;5307;42.548;22.968;2024-03-02T06:42:48;93298.56;;;7.21;100.00
10518;BME280;5307;42.548;22.968;2024-03-02T06:45:15;93292.84;;;7.06;100.00
10518;BME280;5307;42.548;22.968;2024-03-02T06:47:41;93302.34;;;7.24;100.00
10518;BME280;5307;42.548;22.968;2024-03-02T06:50:09;93306.16;;;7.26;100.00
10518;BME280;5307;42.548;22.968;2024-03-02T06:52:35;93300.53;;;7.21;100.00
10518;BME280;5307;42.548;22.968;2024-03-02T06:55:03;93298.31;;;7.28;100.00
10518;BME280;5307;42.548;22.968;2024-03-02T06:57:32;93293.09;;;7.34;100.00
10518;BME280;5307;42.548;22.968;2024-03-02T06:59:58;93297.66;;;7.37;100.00
10518;BME280;5307;42.548;22.968;2024-03-02T07:02:25;93298.53;;;7.34;100.00
10518;BME280;5307;42.548;22.968;2024-03-02T07:04:52;93298.34;;;7.50;100.00
10518;BME280;5307;42.548;22.968;2024-03-02T07:07:19;93306.66;;;7.68;100.00
10518;BME280;5307;42.548;22.968;2024-03-02T07:09:46;93317.13;;;7.57;100.00
10518;BME280;5307;42.548;22.968;2024-03-02T07:12:12;93315.72;;;7.53;100.00
10518;BME280;5307;42.548;22.968;2024-03-02T07:14:41;93318.75;;;7.55;100.00
10518;BME280;5307;42.548;22.968;2024-03-02T07:17:24;93318.59;;;7.71;100.00
10518;BME280;5307;42.548;22.968;2024-03-02T07:19:51;93327.75;;;7.64;100.00
10518;BME280;5307;42.548;22.968;2024-03-02T07:22:18;93328.50;;;7.65;100.00
10518;BME280;5307;42.548;22.968;2024-03-02T07:24:44;93321.19;;;7.74;100.00
10518;BME280;5307;42.548;22.968;2024-03-02T07:27:12;93323.13;;;7.74;100.00
10518;BME280;5307;42.548;22.968;2024-03-02T07:29:41;93334.34;;;7.76;100.00
10518;BME280;5307;42.548;22.968;2024-03-02T07:32:10;93330.78;;;7.66;100.00
10518;BME280;5307;42.548;22.968;2024-03-02T07:34:37;93320.50;;;7.61;100.00
10518;BME280;5307;42.548;22.968;2024-03-02T07:37:04;93332.31;;;7.67;100.00
10518;BME280;5307;42.548;22.968;2024-03-02T07:39:31;93339.88;;;7.72;100.00
10518;BME280;5307;42.548;22.968;2024-03-02T07:48:42;93342.06;;;7.78;100.00
10518;BME280;5307;42.548;22.968;2024-03-02T07:51:08;93341.97;;;7.68;100.00
10518;BME280;5307;42.548;22.968;2024-03-02T07:53:35;93341.66;;;7.66;100.00
10518;BME280;5307;42.548;22.968;2024-03-02T07:56:03;93343.31;;;7.86;100.00
10518;BME280;5307;42.548;22.968;2024-03-02T07:58:30;93342.69;;;7.82;100.00
10518;BME280;5307;42.548;22.968;2024-03-02T08:00:59;93348.50;;;7.93;100.00
10518;BME280;5307;42.548;22.968;2024-03-02T08:03:26;93342.75;;;7.91;100.00
10518;BME280;5307;42.548;22.968;2024-03-02T08:05:54;93344.91;;;7.96;100.00
10518;BME280;5307;42.548;22.968;2024-03-02T08:08:21;93345.59;;;8.09;100.00
10518;BME280;5307;42.548;22.968;2024-03-02T08:10:48;93353.16;;;8.14;100.00
10518;BME280;5307;42.548;22.968;2024-03-02T08:13:15;93344.78;;;8.21;100.00
10518;BME280;5307;42.548;22.968;2024-03-02T08:15:41;93350.38;;;8.27;100.00
10518;BME280;5307;42.548;22.968;2024-03-02T08:18:08;93352.34;;;8.48;100.00
10518;BME280;5307;42.548;22.968;2024-03-02T08:20:35;93354.63;;;8.50;100.00
10518;BME280;5307;42.548;22.968;2024-03-02T08:23:04;93348.97;;;8.66;100.00
10518;BME280;5307;42.548;22.968;2024-03-02T08:25:31;93348.38;;;8.40;100.00
10518;BME280;5307;42.548;22.968;2024-03-02T08:27:58;93355.22;;;8.45;100.00
10518;BME280;5307;42.548;22.968;2024-03-02T08:30:25;93344.97;;;8.58;100.00
10518;BME280;5307;42.548;22.968;2024-03-02T08:32:51;93351.63;;;8.57;100.00
10518;BME280;5307;42.548;22.968;2024-03-02T08:35:18;93350.41;;;8.49;100.00
10518;BME280;5307;42.548;22.968;2024-03-02T08:37:45;93351.84;;;8.41;100.00
10518;BME280;5307;42.548;22.968;2024-03-02T08:40:13;93358.88;;;8.51;100.00
10518;BME280;5307;42.548;22.968;2024-03-02T08:42:40;93356.16;;;8.51;100.00
10518;BME280;5307;42.548;22.968;2024-03-02T08:45:08;93355.00;;;8.70;100.00
10518;BME280;5307;42.548;22.968;2024-03-02T08:47:35;93344.81;;;8.52;100.00
10518;BME280;5307;42.548;22.968;2024-03-02T08:50:03;93347.59;;;8.61;100.00
10518;BME280;5307;42.548;22.968;2024-03-02T08:52:30;93347.44;;;8.65;100.00
10518;BME280;5307;42.548;22.968;2024-03-02T08:54:57;93345.72;;;8.89;100.00
10518;BME280;5307;42.548;22.968;2024-03-02T08:57:25;93350.13;;;8.87;100.00
10518;BME280;5307;42.548;22.968;2024-03-02T08:59:51;93348.47;;;8.89;100.00
10518;BME280;5307;42.548;22.968;2024-03-02T09:02:18;93355.56;;;8.96;100.00
10518;BME280;5307;42.548;22.968;2024-03-02T09:04:45;93359.38;;;8.99;100.00
10518;BME280;5307;42.548;22.968;2024-03-02T09:07:12;93362.69;;;8.93;100.00
10518;BME280;5307;42.548;22.968;2024-03-02T09:09:38;93371.72;;;8.81;100.00
10518;BME280;5307;42.548;22.968;2024-03-02T09:12:05;93369.56;;;8.76;100.00
10518;BME280;5307;42.548;22.968;2024-03-02T09:14:35;93367.69;;;8.64;100.00
10518;BME280;5307;42.548;22.968;2024-03-02T09:17:02;93379.13;;;8.50;100.00
10518;BME280;5307;42.548;22.968;2024-03-02T09:19:29;93373.63;;;8.72;100.00
10518;BME280;5307;42.548;22.968;2024-03-02T09:21:56;93380.72;;;8.69;100.00
10518;BME280;5307;42.548;22.968;2024-03-02T09:24:24;93376.72;;;8.52;100.00
10518;BME280;5307;42.548;22.968;2024-03-02T09:26:50;93374.50;;;8.59;100.00
10518;BME280;5307;42.548;22.968;2024-03-02T09:29:17;93379.50;;;8.61;100.00
10518;BME280;5307;42.548;22.968;2024-03-02T09:31:47;93379.97;;;8.69;100.00
10518;BME280;5307;42.548;22.968;2024-03-02T09:34:15;93379.81;;;8.72;100.00
10518;BME280;5307;42.548;22.968;2024-03-02T09:36:41;93380.34;;;8.58;100.00
10518;BME280;5307;42.548;22.968;2024-03-02T09:39:08;93387.34;;;8.59;100.00
10518;BME280;5307;42.548;22.968;2024-03-02T09:41:36;93381.84;;;8.50;100.00
10518;BME280;5307;42.548;22.968;2024-03-02T09:44:04;93379.94;;;8.38;100.00
10518;BME280;5307;42.548;22.968;2024-03-02T09:46:31;93376.47;;;8.59;100.00
10518;BME280;5307;42.548;22.968;2024-03-02T09:48:59;93376.84;;;8.48;100.00
10518;BME280;5307;42.548;22.968;2024-03-02T09:51:26;93382.16;;;8.52;100.00
10518;BME280;5307;42.548;22.968;2024-03-02T09:53:54;93382.53;;;8.63;100.00
10518;BME280;5307;42.548;22.968;2024-03-02T09:56:21;93380.63;;;8.51;100.00
10518;BME280;5307;42.548;22.968;2024-03-02T09:58:49;93378.59;;;8.64;100.00
10518;BME280;5307;42.548;22.968;2024-03-02T10:01:17;93379.03;;;8.62;100.00
10518;BME280;5307;42.548;22.968;2024-03-02T10:03:44;93381.56;;;8.57;100.00
10518;BME280;5307;42.548;22.968;2024-03-02T10:06:24;93379.50;;;8.61;100.00
10518;BME280;5307;42.548;22.968;2024-03-02T10:08:51;93382.25;;;8.70;100.00
10518;BME280;5307;42.548;22.968;2024-03-02T10:11:28;93386.16;;;8.69;100.00
10518;BME280;5307;42.548;22.968;2024-03-02T10:14:06;93382.25;;;8.70;100.00
10518;BME280;5307;42.548;22.968;2024-03-02T10:16:34;93376.94;;;8.67;100.00
10518;BME280;5307;42.548;22.968;2024-03-02T10:19:18;93372.09;;;8.71;100.00
10518;BME280;5307;42.548;22.968;2024-03-02T10:21:48;93377.44;;;8.74;100.00
10518;BME280;5307;42.548;22.968;2024-03-02T10:24:14;93367.22;;;8.87;100.00
10518;BME280;5307;42.548;22.968;2024-03-02T10:26:41;93369.34;;;8.92;100.00
10518;BME280;5307;42.548;22.968;2024-03-02T10:29:09;93375.53;;;8.93;100.00
10518;BME280;5307;42.548;22.968;2024-03-02T10:31:37;93373.53;;;8.84;100.00
10518;BME280;5307;42.548;22.968;2024-03-02T10:34:04;93370.13;;;9.02;100.00
10518;BME280;5307;42.548;22.968;2024-03-02T10:36:31;93365.81;;;9.23;100.00
10518;BME280;5307;42.548;22.968;2024-03-02T10:39:01;93365.97;;;9.38;100.00
10518;BME280;5307;42.548;22.968;2024-03-02T10:41:32;93361.13;;;9.33;100.00
10518;BME280;5307;42.548;22.968;2024-03-02T10:43:59;93355.69;;;9.33;100.00
10518;BME280;5307;42.548;22.968;2024-03-02T10:46:28;93358.88;;;9.40;100.00
10518;BME280;5307;42.548;22.968;2024-03-02T10:48:55;93346.16;;;9.37;100.00
10518;BME280;5307;42.548;22.968;2024-03-02T10:51:24;93337.69;;;9.53;100.00
10518;BME280;5307;42.548;22.968;2024-03-02T10:53:51;93336.19;;;9.52;100.00
10518;BME280;5307;42.548;22.968;2024-03-02T10:56:22;93334.06;;;9.66;100.00
10518;BME280;5307;42.548;22.968;2024-03-02T10:59:00;93334.06;;;9.66;100.00
10518;BME280;5307;42.548;22.968;2024-03-02T11:01:29;93335.91;;;9.78;99.92
10518;BME280;5307;42.548;22.968;2024-03-02T11:03:58;93338.63;;;9.60;98.87
10518;BME280;5307;42.548;22.968;2024-03-02T11:06:28;93332.72;;;9.89;98.26
10518;BME280;5307;42.548;22.968;2024-03-02T11:08:58;93325.28;;;9.89;96.07
10518;BME280;5307;42.548;22.968;2024-03-02T11:11:32;93319.84;;;9.89;96.02
10518;BME280;5307;42.548;22.968;2024-03-02T11:14:04;93317.88;;;9.71;93.39
10518;BME280;5307;42.548;22.968;2024-03-02T11:16:35;93319.53;;;9.60;92.62
10518;BME280;5307;42.548;22.968;2024-03-02T11:19:04;93323.31;;;9.53;92.34
10518;BME280;5307;42.548;22.968;2024-03-02T11:21:32;93331.47;;;9.53;91.35
10518;BME280;5307;42.548;22.968;2024-03-02T11:23:59;93318.78;;;9.68;91.49
10518;BME280;5307;42.548;22.968;2024-03-02T11:26:27;93312.88;;;9.88;92.47
10518;BME280;5307;42.548;22.968;2024-03-02T11:28:55;93320.72;;;9.95;92.62
10518;BME280;5307;42.548;22.968;2024-03-02T11:31:57;93319.53;;;10.05;93.78
10518;BME280;5307;42.548;22.968;2024-03-02T11:34:29;93308.88;;;10.26;94.29
10518;BME280;5307;42.548;22.968;2024-03-02T11:36:56;93317.69;;;10.21;92.97
10518;BME280;5307;42.548;22.968;2024-03-02T11:39:24;93313.44;;;10.10;90.42
10518;BME280;5307;42.548;22.968;2024-03-02T11:41:51;93313.13;;;10.27;91.04
10518;BME280;5307;42.548;22.968;2024-03-02T11:44:19;93316.16;;;10.20;91.17
10518;BME280;5307;42.548;22.968;2024-03-02T11:46:52;93308.31;;;10.22;90.44
10518;BME280;5307;42.548;22.968;2024-03-02T11:49:36;93301.78;;;10.28;90.77
10518;BME280;5307;42.548;22.968;2024-03-02T11:52:05;93309.50;;;10.21;90.86
10518;BME280;5307;42.548;22.968;2024-03-02T11:54:32;93298.28;;;10.19;88.65
10518;BME280;5307;42.548;22.968;2024-03-02T11:57:01;93303.72;;;10.19;88.36
10518;BME280;5307;42.548;22.968;2024-03-02T11:59:30;93300.97;;;10.37;88.61
10518;BME280;5307;42.548;22.968;2024-03-02T12:01:57;93294.19;;;10.32;88.48
10518;BME280;5307;42.548;22.968;2024-03-02T12:04:25;93302.38;;;10.32;88.88
10518;BME280;5307;42.548;22.968;2024-03-02T12:06:54;93296.31;;;10.28;89.05
10518;BME280;5307;42.548;22.968;2024-03-02T12:09:22;93302.53;;;10.20;89.01
10518;BME280;5307;42.548;22.968;2024-03-02T12:12:01;93294.19;;;10.32;89.96
10518;BME280;5307;42.548;22.968;2024-03-02T12:14:32;93299.19;;;10.34;88.35
10518;BME280;5307;42.548;22.968;2024-03-02T12:16:59;93294.63;;;10.12;86.93
10518;BME280;5307;42.548;22.968;2024-03-02T12:19:26;93299.00;;;10.37;87.94
10518;BME280;5307;42.548;22.968;2024-03-02T12:21:52;93300.72;;;9.98;86.36
10518;BME280;5307;42.548;22.968;2024-03-02T12:24:20;93296.00;;;10.08;86.88
10518;BME280;5307;42.548;22.968;2024-03-02T12:26:47;93300.97;;;10.37;86.75
10518;BME280;5307;42.548;22.968;2024-03-02T12:29:15;93304.34;;;10.32;86.91
10518;BME280;5307;42.548;22.968;2024-03-02T12:31:43;93299.81;;;10.29;86.39
10518;BME280;5307;42.548;22.968;2024-03-02T12:34:12;93299.81;;;10.29;87.46
10518;BME280;5307;42.548;22.968;2024-03-02T12:36:39;93300.97;;;10.37;89.11
10518;BME280;5307;42.548;22.968;2024-03-02T12:39:07;93303.72;;;10.19;87.63
10518;BME280;5307;42.548;22.968;2024-03-02T12:41:36;93301.81;;;9.92;89.60
10518;BME280;5307;42.548;22.968;2024-03-02T12:44:05;93307.69;;;10.08;91.97
10518;BME280;5307;42.548;22.968;2024-03-02T12:46:32;93310.56;;;10.05;94.71
10518;BME280;5307;42.548;22.968;2024-03-02T12:49:08;93308.63;;;9.78;95.70
10518;BME280;5307;42.548;22.968;2024-03-02T12:51:36;93307.25;;;9.82;98.82
10518;BME280;5307;42.548;22.968;2024-03-02T12:54:03;93310.59;;;9.87;100.00
10518;BME280;5307;42.548;22.968;2024-03-02T12:56:31;93304.22;;;9.90;100.00
10518;BME280;5307;42.548;22.968;2024-03-02T12:58:59;93309.81;;;9.95;100.00
10518;BME280;5307;42.548;22.968;2024-03-02T13:01:26;93313.31;;;10.05;100.00
10518;BME280;5307;42.548;22.968;2024-03-02T13:03:53;93321.16;;;10.12;100.00
10518;BME280;5307;42.548;22.968;2024-03-02T13:06:22;93319.34;;;10.18;100.00
10518;BME280;5307;42.548;22.968;2024-03-02T13:08:49;93304.34;;;10.23;100.00
10518;BME280;5307;42.548;22.968;2024-03-02T13:11:16;93304.53;;;10.01;98.08